Time;durP1;ratioP1;P1;durP2;ratioP2;P2;SDS_P1;SDS_P2;PMS_P1;PMS_P2;Temp;Humidity;BMP_temperature;BMP_pressure;BME280_temperature;BME280_humidity;BME280_pressure;Samples;Min_cycle;Max_cycle;Signal;HPM_P1;HPM_P2
2021/09/13 00:02:10;;;;;;;11.83;9.97;;;13.40;99.90;13.50;96928.00;;;;5080522;28;20231;-70
2021/09/13 00:04:59;;;;;;;9.77;8.63;;;13.50;99.90;13.30;96925.00;;;;5067850;28;20604;-70
2021/09/13 00:07:47;;;;;;;12.47;9.10;;;13.40;99.90;13.10;96923.00;;;;5065063;28;21158;-70
2021/09/13 00:10:37;;;;;;;14.70;10.70;;;13.40;99.90;12.90;96916.00;;;;5065500;28;20203;-70
2021/09/13 00:13:26;;;;;;;11.50;9.47;;;13.30;99.90;12.70;96916.00;;;;5064623;28;20207;-70
2021/09/13 00:16:14;;;;;;;10.27;9.20;;;13.10;99.90;12.60;96916.00;;;;5065867;28;20200;-70
2021/09/13 00:19:05;;;;;;;11.37;10.13;;;13.00;99.90;12.80;96917.00;;;;5065354;28;20667;-69
2021/09/13 00:21:54;;;;;;;11.67;9.83;;;13.00;99.90;12.90;96919.00;;;;5065206;28;20545;-70
2021/09/13 00:24:42;;;;;;;11.30;10.07;;;13.00;99.90;13.10;96918.00;;;;5068329;28;20232;-70
2021/09/13 00:27:31;;;;;;;10.70;9.60;;;13.00;99.90;13.00;96916.00;;;;5079800;28;20608;-70
2021/09/13 00:30:20;;;;;;;11.47;10.00;;;13.00;99.90;12.80;96912.00;;;;5066168;28;20214;-69
2021/09/13 00:33:09;;;;;;;10.77;9.77;;;12.90;99.90;12.80;96918.00;;;;5066384;28;20196;-69
2021/09/13 00:35:59;;;;;;;12.10;9.63;;;12.90;99.90;12.90;96920.00;;;;5066347;28;20204;-70
2021/09/13 00:38:48;;;;;;;13.40;9.97;;;12.90;99.90;12.80;96921.00;;;;5074602;28;20215;-69
2021/09/13 00:41:37;;;;;;;10.80;9.73;;;12.90;99.90;12.90;96920.00;;;;5072447;28;20228;-69
2021/09/13 00:44:26;;;;;;;13.83;9.87;;;12.90;99.90;12.90;96913.00;;;;5066089;28;20239;-69
2021/09/13 00:47:15;;;;;;;10.80;9.13;;;12.90;99.90;12.80;96926.00;;;;5066659;28;20207;-69
2021/09/13 00:50:05;;;;;;;10.60;9.57;;;12.90;99.90;13.10;96915.00;;;;5074431;28;20218;-68
2021/09/13 00:52:56;;;;;;;10.80;9.70;;;13.00;99.90;13.00;96915.00;;;;5065373;28;20227;-69
2021/09/13 00:55:45;;;;;;;12.80;9.43;;;13.00;99.90;13.10;96921.00;;;;5066424;28;20230;-69
2021/09/13 00:58:35;;;;;;;13.83;12.53;;;13.00;99.90;13.10;96914.00;;;;5065413;28;20214;-68
2021/09/13 01:01:24;;;;;;;10.53;9.47;;;13.00;99.90;13.00;96914.00;;;;5065150;28;20223;-69
2021/09/13 01:04:13;;;;;;;11.70;10.20;;;13.00;99.90;12.80;96912.00;;;;5066257;28;20706;-69
2021/09/13 01:07:02;;;;;;;12.63;9.60;;;13.00;99.90;12.70;96916.00;;;;5065975;28;20208;-69
2021/09/13 01:09:52;;;;;;;11.47;10.27;;;13.00;99.90;12.50;96912.00;;;;5065477;28;20212;-69
2021/09/13 01:12:41;;;;;;;13.50;10.97;;;12.90;99.90;12.70;96910.00;;;;5065355;28;20232;-70
2021/09/13 01:15:30;;;;;;;11.20;9.57;;;12.80;99.90;12.90;96904.00;;;;5066109;28;20779;-69
2021/09/13 01:18:19;;;;;;;11.77;10.60;;;12.80;99.90;13.00;96914.00;;;;5065675;28;20208;-69
2021/09/13 01:21:08;;;;;;;11.07;9.93;;;12.90;99.90;12.90;96908.00;;;;5065285;28;20227;-70
2021/09/13 01:23:58;;;;;;;10.17;8.90;;;12.90;99.90;12.80;96910.00;;;;5081163;28;20211;-70
2021/09/13 01:26:47;;;;;;;10.47;9.43;;;12.80;99.90;12.80;96903.00;;;;5070022;28;20207;-70
2021/09/13 01:29:37;;;;;;;10.63;9.53;;;12.80;99.90;13.00;96913.00;;;;5067946;28;20204;-69
2021/09/13 01:32:26;;;;;;;14.50;9.10;;;12.90;99.90;13.20;96916.00;;;;5069025;28;20640;-70
2021/09/13 01:35:14;;;;;;;9.90;8.90;;;13.00;99.90;13.30;96912.00;;;;5069291;28;20196;-70
2021/09/13 01:38:04;;;;;;;12.00;10.83;;;13.10;99.90;13.40;96915.00;;;;5069010;28;20215;-70
2021/09/13 01:40:55;;;;;;;11.20;9.73;;;13.20;99.90;13.20;96915.00;;;;5067871;28;20200;-70
2021/09/13 01:43:43;;;;;;;12.77;8.93;;;13.20;99.90;12.90;96917.00;;;;5069994;28;20659;-70
2021/09/13 01:46:32;;;;;;;10.50;9.43;;;13.10;99.90;12.80;96924.00;;;;5069588;28;20232;-70
2021/09/13 01:49:21;;;;;;;10.53;9.40;;;13.00;99.90;13.00;96912.00;;;;5073612;28;20203;-70
2021/09/13 01:52:10;;;;;;;9.90;8.90;;;13.00;99.90;13.10;96916.00;;;;5068708;28;20224;-70
2021/09/13 01:54:59;;;;;;;10.00;9.00;;;13.00;99.90;13.40;96918.00;;;;5068671;28;20208;-70
2021/09/13 01:57:49;;;;;;;10.80;9.70;;;13.10;99.90;13.10;96919.00;;;;5069396;28;20204;-70
2021/09/13 02:00:38;;;;;;;11.23;9.07;;;13.20;99.90;12.90;96915.00;;;;5069398;28;20322;-70
2021/09/13 02:03:27;;;;;;;10.00;9.07;;;13.10;99.90;13.00;96913.00;;;;5067364;28;20232;-71
2021/09/13 02:06:17;;;;;;;11.10;9.87;;;13.00;99.90;12.90;96909.00;;;;5069038;28;20228;-71
2021/09/13 02:09:06;;;;;;;9.73;8.73;;;13.00;99.90;13.10;96920.00;;;;5068125;28;20202;-70
2021/09/13 02:11:54;;;;;;;10.50;9.40;;;13.10;99.90;13.30;96921.00;;;;5068396;28;20579;-70
2021/09/13 02:14:45;;;;;;;9.03;8.13;;;13.10;99.90;13.10;96915.00;;;;5068611;28;20215;-70
2021/09/13 02:17:33;;;;;;;9.53;8.63;;;13.10;99.90;13.00;96918.00;;;;5068202;28;20697;-70
2021/09/13 02:20:22;;;;;;;10.63;9.23;;;13.10;99.90;12.90;96918.00;;;;5068608;28;20215;-70
2021/09/13 02:23:11;;;;;;;11.07;8.83;;;13.00;99.90;12.80;96917.00;;;;5073834;28;20211;-70
2021/09/13 02:26:00;;;;;;;10.33;9.20;;;12.90;99.90;13.00;96918.00;;;;5073477;28;20223;-70
2021/09/13 02:28:49;;;;;;;9.83;8.53;;;12.90;99.90;13.00;96922.00;;;;5067362;28;20222;-70
2021/09/13 02:31:39;;;;;;;9.33;8.43;;;13.00;99.90;13.00;96920.00;;;;5067398;28;20223;-70
2021/09/13 02:34:28;;;;;;;11.13;8.90;;;12.90;99.90;12.90;96925.00;;;;5067130;28;20211;-70
2021/09/13 02:37:17;;;;;;;10.83;9.63;;;12.90;99.90;12.70;96925.00;;;;5067990;28;20204;-70
2021/09/13 02:40:08;;;;;;;12.33;9.90;;;12.90;99.90;12.90;96917.00;;;;5067432;28;20234;-70
2021/09/13 02:42:57;;;;;;;10.37;9.33;;;12.90;99.90;12.80;96918.00;;;;5067909;28;20227;-70
2021/09/13 02:45:47;;;;;;;10.40;9.40;;;12.90;99.90;12.60;96917.00;;;;5067731;28;20223;-70
2021/09/13 02:48:37;;;;;;;11.30;10.20;;;12.80;99.90;12.60;96912.00;;;;5067694;28;20981;-70
2021/09/13 02:51:26;;;;;;;11.83;9.77;;;12.80;99.90;12.60;96916.00;;;;5068056;28;20227;-69
2021/09/13 02:54:15;;;;;;;11.97;10.43;;;12.70;99.90;12.60;96919.00;;;;5067867;28;20200;-70
2021/09/13 02:57:04;;;;;;;11.47;9.13;;;12.70;99.90;12.60;96925.00;;;;5081044;28;20200;-70
2021/09/13 02:59:53;;;;;;;12.00;9.30;;;12.70;99.90;12.30;96910.00;;;;5066999;28;20675;-70
2021/09/13 03:02:43;;;;;;;13.33;9.77;;;12.60;99.90;12.60;96914.00;;;;5066429;28;20322;-71
2021/09/13 03:05:34;;;;;;;10.60;9.50;;;12.60;99.90;12.70;96913.00;;;;5080787;28;20227;-71
2021/09/13 03:08:22;;;;;;;13.20;9.90;;;12.70;99.90;12.90;96907.00;;;;5067678;28;20215;-70
2021/09/13 03:11:11;;;;;;;11.60;10.10;;;12.70;99.90;13.00;96913.00;;;;5067197;28;20231;-70
2021/09/13 03:14:00;;;;;;;11.70;9.97;;;12.80;99.90;12.90;96915.00;;;;5067381;28;20204;-70
2021/09/13 03:16:50;;;;;;;11.07;9.87;;;12.80;99.90;12.70;96921.00;;;;5067787;28;20207;-71
2021/09/13 03:19:39;;;;;;;12.73;10.20;;;12.80;99.90;12.70;96922.00;;;;5067683;28;20216;-71
2021/09/13 03:22:30;;;;;;;11.23;9.13;;;12.80;99.90;12.70;96922.00;;;;5067210;28;20231;-69
2021/09/13 03:25:19;;;;;;;12.77;10.47;;;12.80;99.90;12.70;96921.00;;;;5067314;28;20667;-70
2021/09/13 03:28:07;;;;;;;11.00;9.70;;;12.80;99.90;13.00;96924.00;;;;5079747;28;20694;-71
2021/09/13 03:30:56;;;;;;;11.33;9.80;;;12.80;99.90;13.00;96918.00;;;;5070819;28;20215;-69
2021/09/13 03:33:45;;;;;;;12.53;9.63;;;12.90;99.90;13.00;96923.00;;;;5067124;28;20679;-70
2021/09/13 03:36:34;;;;;;;12.40;10.17;;;12.90;99.90;13.00;96918.00;;;;5067150;28;20510;-70
2021/09/13 03:39:24;;;;;;;11.23;10.03;;;12.90;99.90;12.80;96914.00;;;;5067261;28;20211;-70
2021/09/13 03:42:13;;;;;;;12.80;9.57;;;12.90;99.90;12.90;96911.00;;;;5066516;28;20334;-70
2021/09/13 03:45:02;;;;;;;14.33;10.57;;;12.90;99.90;12.70;96920.00;;;;5067218;28;20212;-70
2021/09/13 03:47:51;;;;;;;10.67;9.57;;;12.80;99.90;12.80;96917.00;;;;5065615;28;20694;-71
2021/09/13 03:50:40;;;;;;;12.20;10.37;;;12.80;99.90;12.90;96910.00;;;;5077044;28;20653;-70
2021/09/13 03:53:29;;;;;;;10.17;9.17;;;12.80;99.90;12.80;96910.00;;;;5073437;28;20199;-70
2021/09/13 03:56:19;;;;;;;10.87;9.43;;;12.80;99.90;12.70;96908.00;;;;5083146;28;20245;-70
2021/09/13 03:59:08;;;;;;;11.03;9.60;;;12.80;99.90;12.50;96910.00;;;;5079183;28;20226;-70
2021/09/13 04:01:59;;;;;;;10.93;9.83;;;12.80;99.90;12.50;96912.00;;;;5081062;28;20216;-70
2021/09/13 04:04:50;;;;;;;12.47;9.53;;;12.70;99.90;12.60;96908.00;;;;5085531;28;20250;-70
2021/09/13 04:07:59;;;;;;;10.27;8.53;;;12.70;99.90;12.60;96909.00;;;;5080058;28;20223;-70
2021/09/13 04:11:03;;;;;;;11.60;9.90;;;12.70;99.90;12.80;96910.00;;;;5071837;28;20682;-71
2021/09/13 04:13:53;;;;;;;12.10;10.40;;;12.70;99.90;13.00;96913.00;;;;5079211;28;20697;-70
2021/09/13 04:16:42;;;;;;;11.27;9.47;;;12.80;99.90;12.80;96912.00;;;;5081774;28;20211;-70
2021/09/13 04:19:31;;;;;;;9.63;8.53;;;12.80;99.90;12.60;96909.00;;;;5081458;28;20200;-70
2021/09/13 04:22:20;;;;;;;10.73;9.63;;;12.80;99.90;12.80;96909.00;;;;5082243;28;20223;-69
2021/09/13 04:25:10;;;;;;;12.67;9.77;;;12.70;99.90;13.00;96911.00;;;;5066967;28;20204;-70
2021/09/13 04:27:59;;;;;;;12.00;10.80;;;12.80;99.90;13.10;96915.00;;;;5063981;28;20603;-70
2021/09/13 04:30:49;;;;;;;11.83;9.60;;;12.90;99.90;12.80;96918.00;;;;5072456;28;20678;-70
2021/09/13 04:33:38;;;;;;;10.27;8.83;;;12.90;99.90;12.50;96917.00;;;;5081331;28;20203;-70
2021/09/13 04:36:27;;;;;;;12.60;9.80;;;12.80;99.90;12.80;96927.00;;;;5074814;28;20207;-71
2021/09/13 04:39:16;;;;;;;9.43;8.53;;;12.80;99.90;12.80;96921.00;;;;5064407;28;20582;-71
2021/09/13 04:42:05;;;;;;;10.57;9.47;;;12.80;99.90;12.90;96920.00;;;;5070708;28;20231;-69
2021/09/13 04:44:54;;;;;;;14.47;11.13;;;12.80;99.90;13.00;96914.00;;;;5065103;28;20713;-69
2021/09/13 04:47:44;;;;;;;10.77;9.53;;;12.80;99.90;13.00;96917.00;;;;5064368;28;20606;-70
2021/09/13 04:50:33;;;;;;;9.93;8.90;;;12.80;99.90;12.90;96924.00;;;;5087468;28;20577;-70
2021/09/13 04:53:23;;;;;;;10.67;9.23;;;12.80;99.90;12.80;96915.00;;;;5067341;28;20207;-70
2021/09/13 04:56:11;;;;;;;9.70;8.70;;;12.80;99.90;12.80;96917.00;;;;5068629;28;20204;-70
2021/09/13 04:59:00;;;;;;;9.37;8.20;;;12.80;99.90;12.80;96919.00;;;;5080904;28;20204;-70
2021/09/13 05:01:49;;;;;;;10.90;8.93;;;12.80;99.90;12.80;96925.00;;;;5077946;28;20226;-71
2021/09/13 05:04:39;;;;;;;14.60;10.10;;;12.70;99.90;12.90;96923.00;;;;5067374;28;20203;-70
2021/09/13 05:07:28;;;;;;;11.90;9.33;;;12.80;99.90;12.90;96923.00;;;;5065560;28;20224;-71
2021/09/13 05:10:17;;;;;;;9.97;9.00;;;12.80;99.90;12.70;96927.00;;;;5064472;28;20208;-71
2021/09/13 05:13:06;;;;;;;10.40;9.30;;;12.80;99.90;12.70;96930.00;;;;5081697;28;20219;-70
2021/09/13 05:15:55;;;;;;;10.80;9.10;;;12.80;99.90;12.90;96927.00;;;;5083981;28;20196;-71
2021/09/13 05:18:45;;;;;;;11.43;9.57;;;12.80;99.90;13.00;96930.00;;;;5064715;28;20210;-70
2021/09/13 05:21:38;;;;;;;11.77;9.30;;;12.90;99.90;13.20;96930.00;;;;5077337;28;20238;-71
2021/09/13 05:24:27;;;;;;;11.13;9.63;;;12.90;99.90;13.30;96941.00;;;;5079531;28;20199;-71
2021/09/13 05:27:16;;;;;;;9.83;8.80;;;13.00;99.90;13.20;96934.00;;;;5084755;28;20305;-70
2021/09/13 05:30:09;;;;;;;14.43;11.13;;;13.10;99.90;13.10;96942.00;;;;5068653;28;20589;-70
2021/09/13 05:32:58;;;;;;;12.53;10.20;;;13.10;99.90;12.90;96935.00;;;;5079466;28;20215;-70
2021/09/13 05:35:47;;;;;;;11.27;9.80;;;13.10;99.90;13.20;96936.00;;;;5079721;28;20206;-70
2021/09/13 05:38:37;;;;;;;10.23;8.90;;;13.10;99.90;13.40;96935.00;;;;5081274;28;20215;-70
2021/09/13 05:41:26;;;;;;;11.17;9.77;;;13.20;99.90;13.50;96937.00;;;;5077806;28;20216;-70
2021/09/13 05:44:15;;;;;;;10.80;9.63;;;13.30;99.90;13.50;96932.00;;;;5083519;28;20508;-70
2021/09/13 05:47:05;;;;;;;11.47;10.00;;;13.40;99.90;13.40;96939.00;;;;5074782;28;20223;-70
2021/09/13 05:49:54;;;;;;;11.20;9.30;;;13.40;99.90;13.50;96940.00;;;;5074545;28;20234;-70
2021/09/13 05:52:43;;;;;;;10.57;8.60;;;13.50;99.90;13.60;96941.00;;;;5075164;28;20214;-70
2021/09/13 05:55:33;;;;;;;11.23;10.00;;;13.50;99.90;13.70;96947.00;;;;5077555;28;20222;-71
2021/09/13 05:58:22;;;;;;;9.80;8.47;;;13.60;99.90;13.50;96947.00;;;;5080713;28;20699;-70
2021/09/13 06:01:11;;;;;;;9.73;8.73;;;13.60;99.90;13.80;96943.00;;;;5080213;28;20298;-72
2021/09/13 06:04:00;;;;;;;10.50;9.47;;;13.70;99.90;14.00;96947.00;;;;5078975;28;20247;-70
2021/09/13 06:06:49;;;;;;;11.27;10.07;;;13.80;99.90;14.20;96956.00;;;;5079896;28;20208;-68
2021/09/13 06:09:38;;;;;;;11.27;9.90;;;13.90;99.90;14.30;96949.00;;;;5064513;28;20227;-70
2021/09/13 06:12:29;;;;;;;10.60;9.50;;;14.00;99.90;14.30;96946.00;;;;5068758;28;20322;-70
2021/09/13 06:15:17;;;;;;;9.80;8.67;;;14.10;99.90;14.30;96948.00;;;;5086032;28;20203;-70
2021/09/13 06:18:06;;;;;;;11.50;9.50;;;14.20;99.90;14.50;96949.00;;;;5110787;28;20661;-70
2021/09/13 06:20:55;;;;;;;10.63;9.50;;;14.30;99.90;14.70;96953.00;;;;5083010;28;20548;-70
2021/09/13 06:23:45;;;;;;;11.00;9.90;;;14.40;99.90;14.70;96950.00;;;;5078299;28;20214;-70
2021/09/13 06:26:34;;;;;;;14.50;10.10;;;14.50;99.90;14.90;96944.00;;;;5067692;28;20215;-70
2021/09/13 06:29:24;;;;;;;9.93;8.47;;;14.70;99.90;15.00;96948.00;;;;5073272;28;20207;-69
2021/09/13 06:32:13;;;;;;;9.90;8.87;;;14.80;99.90;15.00;96948.00;;;;5083432;28;20341;-70
2021/09/13 06:35:02;;;;;;;11.70;8.93;;;14.80;99.90;15.40;96941.00;;;;5087317;28;20203;-69
2021/09/13 06:37:51;;;;;;;11.57;9.70;;;15.00;99.90;15.60;96939.00;;;;5086794;28;20215;-70
2021/09/13 06:40:40;;;;;;;11.60;9.97;;;15.20;99.90;15.80;96939.00;;;;5072890;28;20295;-70
2021/09/13 06:43:30;;;;;;;12.10;9.37;;;15.30;99.90;15.90;96945.00;;;;5067846;28;20200;-70
2021/09/13 06:46:22;;;;;;;10.07;9.00;;;15.50;99.90;15.90;96944.00;;;;5072705;28;20690;-70
2021/09/13 06:49:12;;;;;;;11.97;9.37;;;15.70;99.90;16.10;96938.00;;;;5064855;28;20223;-70
2021/09/13 06:52:01;;;;;;;12.90;10.20;;;15.80;99.90;16.10;96950.00;;;;5073407;28;20234;-70
2021/09/13 06:54:50;;;;;;;11.03;9.93;;;15.90;99.90;16.60;96941.00;;;;5068748;28;20262;-70
2021/09/13 06:57:40;;;;;;;10.33;9.13;;;16.10;99.90;16.70;96950.00;;;;5065846;28;20223;-70
2021/09/13 07:00:29;;;;;;;9.90;8.57;;;16.30;99.90;16.80;96948.00;;;;5066613;28;20200;-70
2021/09/13 07:03:20;;;;;;;11.17;9.37;;;16.50;99.90;17.00;96935.00;;;;5067841;28;20580;-71
2021/09/13 07:06:09;;;;;;;12.60;9.10;;;16.60;99.90;17.20;96942.00;;;;5067491;28;20245;-71
2021/09/13 07:08:58;;;;;;;11.40;9.50;;;16.80;99.90;17.50;96946.00;;;;5068280;28;20219;-70
2021/09/13 07:11:47;;;;;;;12.27;9.77;;;16.90;99.90;17.70;96941.00;;;;5065498;28;20272;-70
2021/09/13 07:14:36;;;;;;;12.40;9.57;;;17.10;99.90;18.00;96946.00;;;;5069408;28;20204;-71
2021/09/13 07:17:25;;;;;;;12.13;9.13;;;17.30;99.90;18.20;96944.00;;;;5070110;28;20195;-71
2021/09/13 07:20:15;;;;;;;9.27;8.37;;;17.60;99.90;18.50;96947.00;;;;5072201;28;20207;-70
2021/09/13 07:23:04;;;;;;;11.70;9.47;;;17.80;99.90;18.80;96951.00;;;;5070579;28;20309;-70
2021/09/13 07:25:53;;;;;;;11.07;8.50;;;18.10;99.90;19.00;96952.00;;;;5065075;28;20298;-70
2021/09/13 07:28:42;;;;;;;15.43;9.47;;;18.30;99.90;19.10;96951.00;;;;5064767;28;20220;-70
2021/09/13 07:31:31;;;;;;;13.47;9.13;;;18.40;99.90;19.30;96948.00;;;;5065145;28;20296;-70
2021/09/13 07:34:20;;;;;;;10.20;8.50;;;18.60;99.90;19.50;96967.00;;;;5061208;28;20203;-70
2021/09/13 07:37:10;;;;;;;9.37;8.37;;;18.80;99.90;19.70;96975.00;;;;5066010;28;20208;-70
2021/09/13 07:39:59;;;;;;;9.47;8.10;;;19.00;99.90;19.60;96969.00;;;;5064367;28;20200;-70
2021/09/13 07:42:48;;;;;;;10.00;8.20;;;18.70;99.90;19.70;96980.00;;;;5066124;28;20697;-68
2021/09/13 07:45:38;;;;;;;8.70;7.80;;;19.20;99.90;19.90;96967.00;;;;5064116;28;20203;-69
2021/09/13 07:48:27;;;;;;;8.37;7.53;;;19.30;99.90;20.20;96968.00;;;;5067105;28;20231;-68
2021/09/13 07:51:15;;;;;;;10.00;7.47;;;19.50;99.90;20.40;96980.00;;;;5064003;28;20236;-69
2021/09/13 07:54:06;;;;;;;8.07;7.27;;;19.60;99.90;20.50;96985.00;;;;5067501;28;20212;-69
2021/09/13 07:56:55;;;;;;;8.47;7.57;;;19.80;99.90;20.80;96981.00;;;;5065546;28;20203;-70
2021/09/13 07:59:44;;;;;;;7.90;6.73;;;20.00;99.90;20.80;96983.00;;;;5065873;28;20859;-69
2021/09/13 08:02:33;;;;;;;8.57;7.73;;;20.10;99.90;20.90;96983.00;;;;5066438;28;20224;-70
2021/09/13 08:05:22;;;;;;;8.80;6.57;;;20.20;99.90;21.00;96984.00;;;;5071723;28;20409;-69
2021/09/13 08:08:12;;;;;;;8.37;7.50;;;20.40;99.90;21.00;96981.00;;;;5067418;28;20231;-69
2021/09/13 08:11:03;;;;;;;8.60;7.40;;;20.40;99.90;21.10;96983.00;;;;5070938;27;20215;-70
2021/09/13 08:13:52;;;;;;;8.93;7.97;;;20.70;99.90;21.30;96991.00;;;;5067054;28;20203;-70
2021/09/13 08:16:41;;;;;;;9.50;7.77;;;20.60;99.90;21.30;96996.00;;;;5069783;28;20203;-70
2021/09/13 08:19:30;;;;;;;9.53;7.60;;;20.70;99.90;21.50;96988.00;;;;5070115;28;20756;-69
2021/09/13 08:22:19;;;;;;;8.20;6.87;;;20.90;99.90;21.60;96992.00;;;;5069053;28;20223;-70
2021/09/13 08:25:09;;;;;;;6.83;6.13;;;21.00;99.90;21.80;97003.00;;;;5065930;28;20213;-69
2021/09/13 08:27:59;;;;;;;7.97;7.07;;;21.30;99.90;21.90;96997.00;;;;5071537;28;20504;-69
2021/09/13 08:30:49;;;;;;;7.60;6.90;;;21.20;99.90;22.00;97008.00;;;;5066300;28;20211;-69
2021/09/13 08:33:38;;;;;;;7.93;7.17;;;21.30;99.90;22.20;96997.00;;;;5067804;28;20207;-69
2021/09/13 08:36:27;;;;;;;8.57;6.60;;;21.40;99.90;22.20;96990.00;;;;5069567;27;20252;-70
2021/09/13 08:39:16;;;;;;;7.37;6.60;;;21.60;99.90;22.50;97002.00;;;;5063092;28;20195;-70
2021/09/13 08:42:05;;;;;;;7.73;6.50;;;21.70;99.90;22.40;97001.00;;;;5062772;28;20683;-69
2021/09/13 08:44:59;;;;;;;7.67;6.10;;;21.90;99.90;22.50;97004.00;;;;5064818;28;20210;-68
2021/09/13 08:47:58;;;;;;;6.13;5.60;;;21.90;99.90;22.80;97001.00;;;;5069394;28;20753;-69
2021/09/13 08:51:06;;;;;;;6.70;5.97;;;22.10;99.90;22.70;97000.00;;;;5072568;28;20294;-69
2021/09/13 08:53:55;;;;;;;6.70;6.10;;;22.10;99.90;23.10;96999.00;;;;5065985;28;20195;-70
2021/09/13 08:56:47;;;;;;;7.30;5.97;;;22.30;99.90;23.00;96997.00;;;;5063989;28;20200;-69
2021/09/13 08:59:37;;;;;;;7.77;6.43;;;22.40;99.90;23.20;97004.00;;;;5062317;28;20211;-69
2021/09/13 09:02:28;;;;;;;6.60;6.03;;;22.50;99.90;23.40;97014.00;;;;5063215;28;20232;-69
2021/09/13 09:05:17;;;;;;;6.73;6.13;;;22.60;99.90;23.40;97008.00;;;;5062029;28;20208;-68
2021/09/13 09:08:06;;;;;;;7.13;6.00;;;22.70;99.90;23.60;97002.00;;;;5067578;28;20290;-68
2021/09/13 09:10:58;;;;;;;7.90;6.20;;;22.80;99.90;23.70;97004.00;;;;5063458;28;20201;-69
2021/09/13 09:13:47;;;;;;;9.07;5.30;;;22.90;99.90;23.90;96992.00;;;;5064719;28;20216;-70
2021/09/13 09:16:37;;;;;;;6.80;5.80;;;23.10;99.90;24.20;96992.00;;;;5068970;28;20198;-70
2021/09/13 09:19:27;;;;;;;5.90;5.40;;;23.20;99.90;24.30;97001.00;;;;5064132;28;20581;-70
2021/09/13 09:22:28;;;;;;;6.07;5.33;;;23.40;99.90;24.50;97002.00;;;;5068274;28;20231;-70
2021/09/13 09:25:27;;;;;;;6.57;5.97;;;23.50;99.90;24.80;96992.00;;;;5062596;28;20199;-71
2021/09/13 09:28:16;;;;;;;6.90;6.23;;;23.70;99.90;25.00;97002.00;;;;5063849;28;20205;-70
2021/09/13 09:31:05;;;;;;;6.47;5.33;;;24.00;99.90;25.20;96992.00;;;;5067567;28;20702;-71
2021/09/13 09:34:13;;;;;;;5.93;5.43;;;24.10;99.90;25.40;97001.00;;;;5066791;28;20208;-69
2021/09/13 09:37:11;;;;;;;6.70;5.30;;;24.40;99.90;25.40;96993.00;;;;5064948;28;20212;-72
2021/09/13 09:40:02;;;;;;;4.93;4.53;;;24.50;99.90;25.70;96991.00;;;;5068834;28;20210;-71
2021/09/13 09:42:55;;;;;;;6.13;5.53;;;24.70;99.90;25.90;96990.00;;;;5064608;28;20633;-68
2021/09/13 09:45:44;;;;;;;6.83;5.17;;;24.90;99.90;26.20;96989.00;;;;5067733;28;20287;-73
2021/09/13 09:48:33;;;;;;;6.07;4.90;;;25.10;99.90;26.40;96985.00;;;;5069117;28;20212;-70
2021/09/13 09:51:31;;;;;;;5.00;4.60;;;25.20;99.90;26.40;96988.00;;;;5063596;28;20236;-70
2021/09/13 09:54:24;;;;;;;5.20;4.70;;;25.40;99.90;26.60;96984.00;;;;5068475;28;20708;-67
2021/09/13 09:57:13;;;;;;;6.10;4.77;;;25.60;99.90;26.40;96974.00;;;;5083974;28;20209;-71
2021/09/13 10:00:26;;;;;;;8.37;5.60;;;25.70;99.90;27.00;96970.00;;;;5064385;28;20216;-71
2021/09/13 10:03:31;;;;;;;6.17;5.57;;;25.80;99.90;27.20;96966.00;;;;5067081;28;20194;-69
2021/09/13 10:06:21;;;;;;;6.43;5.07;;;26.10;99.90;27.40;96977.00;;;;5068691;28;20302;-68
2021/09/13 10:09:12;;;;;;;5.00;4.50;;;26.20;99.70;27.60;96965.00;;;;5067470;28;20249;-68
2021/09/13 10:12:05;;;;;;;5.97;5.47;;;26.40;99.30;27.20;96966.00;;;;5071018;28;20244;-68
2021/09/13 10:14:54;;;;;;;6.93;5.87;;;26.50;97.20;26.80;96961.00;;;;5069124;28;20200;-69
2021/09/13 10:17:43;;;;;;;4.37;4.07;;;26.40;95.90;27.20;96963.00;;;;5066652;28;20208;-70
2021/09/13 10:20:32;;;;;;;5.13;4.63;;;26.30;96.40;27.50;96957.00;;;;5066809;28;23651;-68
2021/09/13 10:23:21;;;;;;;6.40;4.73;;;26.50;95.50;28.10;96955.00;;;;5069226;28;20202;-69
2021/09/13 10:26:10;;;;;;;11.77;5.40;;;26.70;95.20;28.40;96955.00;;;;5070094;28;20211;-68
2021/09/13 10:29:29;;;;;;;5.83;4.97;;;27.00;95.20;28.50;96954.00;;;;5066382;28;20200;-70
2021/09/13 10:32:30;;;;;;;5.17;4.77;;;27.20;93.70;28.50;96948.00;;;;5069401;28;20244;-72
2021/09/13 10:35:21;;;;;;;8.47;4.80;;;27.60;91.30;28.90;96951.00;;;;5065964;28;20244;-71
2021/09/13 10:38:10;;;;;;;6.63;6.03;;;27.70;90.90;28.70;96946.00;;;;5065675;28;20436;-70
2021/09/13 10:40:59;;;;;;;5.77;4.90;;;27.90;89.60;28.50;96949.00;;;;5066630;28;20202;-68
2021/09/13 10:44:06;;;;;;;5.07;4.53;;;28.10;84.80;27.80;96937.00;;;;5063663;28;20209;-70
2021/09/13 10:47:06;;;;;;;5.30;4.70;;;28.00;80.90;29.40;96942.00;;;;5071447;28;20207;-71
2021/09/13 10:50:28;;;;;;;4.77;4.27;;;28.10;83.40;30.00;96925.00;;;;5063903;28;20873;-69
2021/09/13 10:53:37;;;;;;;4.15;3.70;;;28.40;84.20;30.30;96966.00;;;;5062695;28;20210;-70
2021/09/13 10:56:26;;;;;;;4.00;3.60;;;28.90;79.30;29.60;96917.00;;;;5064916;28;20823;-72
2021/09/13 10:59:44;;;;;;;4.53;4.13;;;28.90;76.90;30.10;96921.00;;;;5064242;28;20205;-71
2021/09/13 11:02:34;;;;;;;4.68;4.28;;;29.20;77.30;30.30;96933.00;;;;5064312;28;20812;-70
2021/09/13 11:05:23;;;;;;;7.25;5.03;;;29.40;74.60;30.80;96914.00;;;;5066858;28;20214;-71
2021/09/13 11:08:25;;;;;;;4.30;3.88;;;29.50;74.40;31.10;96962.00;;;;5068645;28;20220;-71
2021/09/13 11:11:16;;;;;;;4.00;3.53;;;29.70;74.70;29.60;96956.00;;;;5065666;28;20224;-72
2021/09/13 11:14:08;;;;;;;6.28;4.28;;;29.50;71.20;29.10;96954.00;;;;5069584;28;20201;-69
2021/09/13 11:17:01;;;;;;;5.00;4.38;;;29.20;70.70;29.10;96913.00;;;;5064879;28;20211;-70
2021/09/13 11:19:51;;;;;;;21.83;9.88;;;29.00;69.20;29.70;96947.00;;;;5063404;28;20206;-69
2021/09/13 11:22:45;;;;;;;17.10;8.52;;;29.00;70.80;30.60;96911.00;;;;5064923;28;20230;-68
2021/09/13 11:25:34;;;;;;;20.73;10.63;;;29.20;71.60;31.10;96904.00;;;;5062591;28;20208;-68
2021/09/13 11:28:22;;;;;;;11.18;4.30;;;29.00;71.70;31.10;96919.00;;;;5068192;28;20200;-69
2021/09/13 11:31:11;;;;;;;6.53;4.30;;;29.80;69.20;31.30;96934.00;;;;5064152;28;20226;-68
2021/09/13 11:34:01;;;;;;;8.07;4.90;;;30.00;68.20;29.80;96939.00;;;;5065947;28;22148;-71
2021/09/13 11:37:03;;;;;;;4.80;4.40;;;29.90;64.80;29.40;96942.00;;;;5067014;28;20205;-68
2021/09/13 11:39:57;;;;;;;4.32;3.92;;;29.90;65.30;29.40;96943.00;;;;5065492;28;20215;-70
2021/09/13 11:42:45;;;;;;;4.65;4.25;;;29.20;66.20;29.10;96944.00;;;;5060678;28;20230;-70
2021/09/13 11:45:34;;;;;;;5.55;3.88;;;28.90;65.90;28.40;96941.00;;;;5065473;28;20205;-70
2021/09/13 11:48:26;;;;;;;4.45;4.05;;;28.50;66.10;28.40;96941.00;;;;5069624;28;20213;-68
2021/09/13 11:51:15;;;;;;;5.85;4.03;;;28.10;68.20;27.90;96943.00;;;;5064301;28;20239;-69
2021/09/13 11:54:08;;;;;;;6.55;4.65;;;27.90;68.50;27.40;96937.00;;;;5066540;28;20580;-70
2021/09/13 11:56:57;;;;;;;5.07;4.57;;;27.60;67.50;26.90;96935.00;;;;5064280;28;20200;-71
2021/09/13 11:59:55;;;;;;;4.60;4.20;;;27.20;67.30;27.00;96932.00;;;;5064605;28;20203;-68
2021/09/13 12:02:47;;;;;;;4.67;4.03;;;26.80;69.00;27.30;96943.00;;;;5059002;28;20225;-69
2021/09/13 12:05:43;;;;;;;4.67;4.27;;;26.70;70.60;27.20;96938.00;;;;5067744;28;20205;-67
2021/09/13 12:08:32;;;;;;;4.60;4.20;;;26.80;72.90;27.20;96935.00;;;;5060790;28;20195;-67
2021/09/13 12:11:23;;;;;;;6.07;4.23;;;26.50;72.90;27.40;96925.00;;;;5069934;28;20236;-67
2021/09/13 12:14:12;;;;;;;4.77;4.27;;;26.50;73.20;27.80;96924.00;;;;5069185;28;20208;-69
2021/09/13 12:17:11;;;;;;;5.47;4.97;;;26.60;74.30;29.60;96872.00;;;;5073048;28;20218;-68
2021/09/13 12:20:17;;;;;;;7.53;4.03;;;27.20;74.40;30.60;96873.00;;;;5067545;28;20219;-69
2021/09/13 12:23:09;;;;;;;6.57;4.90;;;28.00;72.70;31.60;96877.00;;;;5066499;28;20236;-68
2021/09/13 12:26:03;;;;;;;7.32;4.70;;;28.90;71.10;32.30;96919.00;;;;5068151;28;20205;-67
2021/09/13 12:28:53;;;;;;;9.85;4.78;;;29.60;68.60;31.80;96890.00;;;;5068503;28;20216;-69
2021/09/13 12:31:42;;;;;;;10.05;5.25;;;30.10;67.40;31.80;96879.00;;;;5062154;28;20234;-69
2021/09/13 12:34:55;;;;;;;8.40;4.60;;;30.40;65.70;32.30;96881.00;;;;5062542;28;20211;-69